Air Navigation Services of Czech Republic
Airport: LKKB Updated:  24.07.2021 06:27:28  UTC
 METAR LKKB 24.07. 06:30 ...
METAR LKKB 240630Z VRB02KT CAVOK 17/13 Q1014 NOSIG RMK BLU BLU=
 TAF LKKB 24.07. 05:00 ...
TAF LKKB 240500Z 2406/2506 07004KT CAVOK      TEMPO 2408/2418 13008KT      TEMPO 2502/2506 24012KT RA SCT030 BKN045=